Time;durP1;ratioP1;P1;durP2;ratioP2;P2;SDS_P1;SDS_P2;PMS_P1;PMS_P2;Temp;Humidity;BMP_temperature;BMP_pressure;BME280_temperature;BME280_humidity;BME280_pressure;Samples;Min_cycle;Max_cycle;Signal;HPM_P1;HPM_P2
2021/07/16 00:00:10;;;;;;;7.45;3.25;;;;;;;23.58;54.13;100975.75;4974150;28;20488;-63
2021/07/16 00:02:38;;;;;;;4.68;2.97;;;;;;;23.56;53.81;100982.28;4974009;28;20059;-63
2021/07/16 00:05:05;;;;;;;7.13;3.17;;;;;;;23.51;53.90;100980.09;4973950;28;20051;-63
2021/07/16 00:07:32;;;;;;;7.00;3.70;;;;;;;23.47;53.76;100971.53;4974029;28;20101;-63
2021/07/16 00:09:59;;;;;;;6.65;3.58;;;;;;;23.48;53.80;100970.53;4974000;28;20051;-63
2021/07/16 00:12:26;;;;;;;6.60;3.40;;;;;;;23.47;53.75;100970.72;4973750;28;20073;-63
2021/07/16 00:14:53;;;;;;;9.82;3.50;;;;;;;23.42;54.17;100965.03;4973604;28;20117;-63
2021/07/16 00:17:19;;;;;;;7.85;3.13;;;;;;;23.43;54.01;100966.69;4973879;28;20109;-63
2021/07/16 00:19:46;;;;;;;5.45;3.10;;;;;;;23.39;54.03;100966.19;4973855;28;20102;-63
2021/07/16 00:22:13;;;;;;;7.60;3.53;;;;;;;23.39;53.83;100968.88;4973709;28;20046;-63
2021/07/16 00:24:39;;;;;;;4.85;2.90;;;;;;;23.39;54.09;100970.69;4973707;28;20086;-63
2021/07/16 00:27:06;;;;;;;4.60;2.90;;;;;;;23.40;53.80;100967.00;4973570;28;20492;-63
2021/07/16 00:29:33;;;;;;;6.10;3.03;;;;;;;23.36;53.96;100971.03;4973654;28;20050;-63
2021/07/16 00:31:59;;;;;;;8.70;3.25;;;;;;;23.34;53.82;100968.53;4972868;28;20086;-63
2021/07/16 00:34:27;;;;;;;3.92;2.63;;;;;;;23.33;54.07;100963.34;4973553;28;20047;-63
2021/07/16 00:36:53;;;;;;;7.40;2.83;;;;;;;23.30;53.79;100965.34;4973654;28;20059;-63
2021/07/16 00:39:20;;;;;;;6.78;3.78;;;;;;;23.23;54.02;100961.63;4973464;28;20488;-63
2021/07/16 00:41:46;;;;;;;8.00;3.15;;;;;;;23.18;54.54;100957.78;4973330;28;20514;-63
2021/07/16 00:44:13;;;;;;;7.32;3.50;;;;;;;23.17;54.34;100959.63;4973524;28;20047;-63
2021/07/16 00:46:39;;;;;;;9.32;3.63;;;;;;;23.17;54.54;100953.44;4973331;28;20054;-63
2021/07/16 00:49:06;;;;;;;6.28;3.40;;;;;;;23.17;54.86;100958.78;4973687;28;20455;-63
2021/07/16 00:51:33;;;;;;;4.28;2.75;;;;;;;23.14;54.71;100958.06;4973515;28;20109;-63
2021/07/16 00:54:00;;;;;;;7.43;3.40;;;;;;;23.17;55.06;100958.78;4973430;28;20050;-63
2021/07/16 00:56:26;;;;;;;4.65;2.80;;;;;;;23.16;55.12;100952.63;4973373;28;20051;-63
2021/07/16 00:58:55;;;;;;;12.60;4.05;;;;;;;23.12;54.93;100957.41;4973229;28;20146;-63
2021/07/16 01:01:22;;;;;;;11.57;3.83;;;;;;;23.07;55.21;100956.22;4973281;28;20050;-63
2021/07/16 01:03:50;;;;;;;13.13;3.50;;;;;;;23.06;55.46;100960.75;4973118;28;20133;-63
2021/07/16 01:06:17;;;;;;;9.05;3.17;;;;;;;23.02;55.54;100950.53;4973268;28;20487;-63
2021/07/16 01:08:44;;;;;;;7.28;3.35;;;;;;;22.99;55.67;100944.50;4973260;28;20057;-63
2021/07/16 01:11:11;;;;;;;8.15;3.08;;;;;;;23.01;55.43;100952.38;4973444;28;20113;-63
2021/07/16 01:13:37;;;;;;;7.10;3.60;;;;;;;22.99;55.89;100943.66;4973151;28;20051;-63
2021/07/16 01:16:05;;;;;;;4.45;2.60;;;;;;;22.93;55.66;100944.31;4973017;28;20677;-63
2021/07/16 01:18:32;;;;;;;5.93;2.92;;;;;;;22.98;55.84;100941.97;4973122;28;20055;-63
2021/07/16 01:20:59;;;;;;;5.00;2.88;;;;;;;23.00;55.73;100948.03;4973247;28;20039;-63
2021/07/16 01:23:25;;;;;;;4.95;3.38;;;;;;;23.00;55.66;100942.66;4972923;28;20558;-63
2021/07/16 01:25:53;;;;;;;5.35;2.95;;;;;;;22.93;55.67;100942.50;4972983;28;20047;-63
2021/07/16 01:28:21;;;;;;;8.63;3.47;;;;;;;22.91;56.02;100949.00;4973067;28;20508;-63
2021/07/16 01:30:53;;;;;;;7.03;3.05;;;;;;;22.88;56.46;100943.97;4973186;28;20081;-63
2021/07/16 01:33:21;;;;;;;7.45;3.40;;;;;;;22.86;56.66;100933.44;4973235;28;20103;-63
2021/07/16 01:35:50;;;;;;;6.47;2.80;;;;;;;22.86;56.64;100944.13;4973148;28;20101;-63
2021/07/16 01:38:17;;;;;;;5.32;2.67;;;;;;;22.87;56.88;100943.13;4973052;28;20050;-63
2021/07/16 01:40:44;;;;;;;6.47;3.20;;;;;;;22.83;56.75;100939.94;4972880;28;20042;-63
2021/07/16 01:43:11;;;;;;;4.75;3.15;;;;;;;22.82;56.46;100935.59;4973377;28;20376;-63
2021/07/16 01:45:41;;;;;;;5.90;3.20;;;;;;;22.83;56.81;100945.28;4976498;28;20043;-63
2021/07/16 01:48:13;;;;;;;5.30;3.10;;;;;;;22.86;56.83;100935.28;4976659;28;20101;-63
2021/07/16 01:50:43;;;;;;;6.68;2.80;;;;;;;22.83;56.41;100947.97;4976430;28;20122;-63
2021/07/16 01:53:11;;;;;;;6.18;3.17;;;;;;;22.80;56.34;100951.00;4976455;28;20459;-63
2021/07/16 01:55:39;;;;;;;3.75;2.85;;;;;;;22.80;56.52;100944.78;4976392;28;20097;-63
2021/07/16 01:58:10;;;;;;;5.80;3.05;;;;;;;22.82;56.38;100942.78;4976452;28;20070;-63
2021/07/16 02:00:39;;;;;;;7.22;3.13;;;;;;;22.85;56.18;100930.94;4976424;28;20047;-63
2021/07/16 02:03:08;;;;;;;5.90;2.53;;;;;;;22.86;56.05;100928.06;4976086;28;20106;-63
2021/07/16 02:05:37;;;;;;;5.15;2.75;;;;;;;22.87;55.81;100935.09;4976278;28;20051;-63
2021/07/16 02:08:16;;;;;;;4.13;2.60;;;;;;;22.87;55.43;100934.25;4976296;28;20093;-63
2021/07/16 02:10:49;;;;;;;4.70;2.90;;;;;;;22.84;55.63;100924.72;4976090;28;20055;-63
2021/07/16 02:13:16;;;;;;;5.00;3.08;;;;;;;22.82;55.52;100924.88;4975935;28;20492;-63
2021/07/16 02:15:45;;;;;;;5.30;3.15;;;;;;;22.82;55.49;100926.75;4975813;28;20467;-63
2021/07/16 02:18:13;;;;;;;7.65;3.53;;;;;;;22.80;55.36;100926.91;4976073;28;20043;-63
2021/07/16 02:20:43;;;;;;;5.82;3.33;;;;;;;22.78;55.11;100928.91;4976048;28;20046;-63
2021/07/16 02:23:19;;;;;;;7.68;3.55;;;;;;;22.78;55.37;100920.88;4976013;28;20051;-63
2021/07/16 02:25:46;;;;;;;5.55;3.35;;;;;;;22.77;55.23;100927.22;4975691;28;20467;-63
2021/07/16 02:28:18;;;;;;;6.70;3.45;;;;;;;22.74;55.27;100922.19;4975882;28;20058;-63
2021/07/16 02:30:45;;;;;;;5.70;2.88;;;;;;;22.71;55.45;100919.84;4975787;28;20051;-63
2021/07/16 02:33:13;;;;;;;6.75;3.97;;;;;;;22.69;55.33;100916.50;4975803;28;20058;-63
2021/07/16 02:35:43;;;;;;;6.03;3.05;;;;;;;22.69;55.23;100915.66;4975524;28;20118;-63
2021/07/16 02:38:09;;;;;;;6.07;3.28;;;;;;;22.69;55.27;100912.97;4975584;28;20055;-63
2021/07/16 02:40:36;;;;;;;6.75;3.10;;;;;;;22.68;55.20;100914.81;4975471;28;20046;-63
2021/07/16 02:43:04;;;;;;;4.72;2.90;;;;;;;22.67;55.21;100913.16;4975445;28;20105;-63
2021/07/16 02:45:31;;;;;;;5.88;3.45;;;;;;;22.66;55.43;100919.47;4975445;28;20047;-63
2021/07/16 02:48:01;;;;;;;4.78;3.20;;;;;;;22.67;55.36;100921.16;4975513;28;20046;-63
2021/07/16 02:50:31;;;;;;;7.30;2.90;;;;;;;22.67;55.31;100918.50;4975401;28;20070;-63
2021/07/16 02:53:07;;;;;;;8.20;3.35;;;;;;;22.64;55.43;100916.97;4975342;28;20078;-63
2021/07/16 02:55:34;;;;;;;7.78;3.13;;;;;;;22.63;55.39;100923.31;4974559;28;20090;-63
2021/07/16 02:58:01;;;;;;;7.05;3.03;;;;;;;22.61;55.69;100927.16;4975240;28;20047;-63
2021/07/16 03:00:29;;;;;;;7.72;3.25;;;;;;;22.52;55.89;100915.59;4975339;28;20093;-63
2021/07/16 03:02:58;;;;;;;4.55;3.22;;;;;;;22.53;56.07;100914.59;4977854;28;20050;-63
2021/07/16 03:05:29;;;;;;;4.57;3.33;;;;;;;22.53;56.43;100914.59;4990888;28;20050;-63
2021/07/16 03:07:59;;;;;;;6.15;3.70;;;;;;;22.53;56.70;100917.28;4990857;28;20087;-63
2021/07/16 03:10:46;;;;;;;4.45;3.15;;;;;;;22.57;56.28;100917.78;4991353;28;20051;-63
2021/07/16 03:13:15;;;;;;;5.30;3.08;;;;;;;22.54;56.32;100918.09;4990349;28;20140;-63
2021/07/16 03:15:42;;;;;;;6.30;3.55;;;;;;;22.48;56.80;100919.59;4990778;28;20537;-63
2021/07/16 03:18:10;;;;;;;5.00;3.50;;;;;;;22.42;56.96;100921.06;4990784;28;20054;-63
2021/07/16 03:20:43;;;;;;;5.60;3.88;;;;;;;22.40;57.04;100922.22;4990929;28;20058;-63
2021/07/16 03:23:12;;;;;;;8.98;4.20;;;;;;;22.38;57.21;100916.22;4991059;28;20411;-63
2021/07/16 03:25:39;;;;;;;7.95;3.97;;;;;;;22.37;57.43;100922.56;4990736;28;20578;-63
2021/07/16 03:28:06;;;;;;;5.88;3.60;;;;;;;22.34;57.63;100919.16;4990757;28;20101;-63
2021/07/16 03:30:34;;;;;;;8.48;4.25;;;;;;;22.32;58.13;100925.66;4990374;28;20101;-63
2021/07/16 03:33:01;;;;;;;5.35;3.30;;;;;;;22.30;58.11;100928.50;4990672;28;20073;-63
2021/07/16 03:35:27;;;;;;;6.60;4.25;;;;;;;22.29;58.55;100926.81;4990517;28;20046;-63
2021/07/16 03:37:55;;;;;;;6.22;3.92;;;;;;;22.28;59.12;100929.66;4990333;28;20050;-63
2021/07/16 03:40:29;;;;;;;7.90;4.57;;;;;;;22.27;58.93;100930.66;4990505;28;20046;-63
2021/07/16 03:42:58;;;;;;;8.00;4.53;;;;;;;22.25;59.25;100932.66;4990293;28;20046;-63
2021/07/16 03:45:25;;;;;;;8.30;3.95;;;;;;;22.18;59.73;100941.31;4990243;28;20071;-63
2021/07/16 03:47:51;;;;;;;8.35;3.97;;;;;;;22.15;59.92;100930.09;4990206;28;20046;-63
2021/07/16 03:50:20;;;;;;;5.43;3.80;;;;;;;22.15;60.34;100930.91;4990240;28;20562;-64
2021/07/16 03:52:48;;;;;;;9.32;4.55;;;;;;;22.18;60.05;100933.28;4990110;28;20089;-63
2021/07/16 03:55:15;;;;;;;6.63;4.43;;;;;;;22.16;60.00;100921.91;4990283;28;20069;-63
2021/07/16 03:57:46;;;;;;;6.70;4.53;;;;;;;22.10;60.33;100927.06;4990096;28;20047;-63
2021/07/16 04:00:16;;;;;;;13.38;4.45;;;;;;;22.10;60.55;100914.53;4989986;28;20419;-63
2021/07/16 04:02:43;;;;;;;9.32;4.70;;;;;;;22.13;60.47;100926.72;4990015;28;20140;-63
2021/07/16 04:05:11;;;;;;;7.90;4.28;;;;;;;22.13;60.04;100924.06;4990090;28;20063;-64
2021/07/16 04:07:45;;;;;;;8.38;4.15;;;;;;;22.14;60.36;100917.72;4989797;28;20093;-63
2021/07/16 04:10:16;;;;;;;11.05;4.53;;;;;;;22.15;60.29;100914.88;4990033;28;20053;-63
2021/07/16 04:12:49;;;;;;;7.47;4.75;;;;;;;22.15;60.22;100909.53;4989693;28;20581;-63
2021/07/16 04:15:16;;;;;;;8.27;4.30;;;;;;;22.15;60.60;100914.88;4989592;28;20054;-63
2021/07/16 04:17:42;;;;;;;7.82;4.38;;;;;;;22.17;60.73;100917.44;4989814;28;20058;-63
2021/07/16 04:20:10;;;;;;;8.02;4.15;;;;;;;22.15;60.86;100920.22;4989893;28;20050;-63
2021/07/16 04:22:39;;;;;;;11.48;4.72;;;;;;;22.18;60.65;100924.41;4989409;28;20046;-63
2021/07/16 04:25:07;;;;;;;8.50;4.30;;;;;;;22.22;60.65;100923.13;4989428;28;20046;-63
2021/07/16 04:27:34;;;;;;;8.55;4.50;;;;;;;22.26;60.44;100926.28;4989637;28;20043;-63
2021/07/16 04:30:01;;;;;;;9.57;4.18;;;;;;;22.29;60.22;100923.31;4989448;28;20510;-63
2021/07/16 04:32:27;;;;;;;9.05;4.70;;;;;;;22.30;60.32;100922.34;4989904;28;20423;-63
2021/07/16 04:34:55;;;;;;;12.07;4.22;;;;;;;22.29;60.25;100926.81;4989472;28;20054;-63
2021/07/16 04:37:22;;;;;;;8.30;4.00;;;;;;;22.31;60.08;100932.03;4989473;28;20073;-63
2021/07/16 04:39:48;;;;;;;7.45;4.78;;;;;;;22.32;59.89;100931.00;4989258;28;20050;-63
2021/07/16 04:42:15;;;;;;;7.72;4.00;;;;;;;22.36;59.86;100935.06;4989381;28;20050;-63
2021/07/16 04:44:41;;;;;;;7.78;3.60;;;;;;;22.32;59.51;100942.56;4989543;28;20112;-63
2021/07/16 04:47:08;;;;;;;4.95;3.95;;;;;;;22.33;59.64;100935.38;4989745;28;20069;-63
2021/07/16 04:49:36;;;;;;;6.60;4.32;;;;;;;22.39;58.87;100940.09;4989440;28;20074;-63
2021/07/16 04:52:03;;;;;;;6.53;3.72;;;;;;;22.42;58.73;100942.44;4989269;28;20051;-63
2021/07/16 04:54:30;;;;;;;9.95;5.18;;;;;;;22.42;59.26;100944.28;4989376;28;20054;-63
2021/07/16 04:56:57;;;;;;;7.30;5.40;;;;;;;22.43;59.32;100951.31;4989319;28;20054;-63
2021/07/16 04:59:23;;;;;;;8.55;5.32;;;;;;;22.46;59.44;100949.19;4989212;28;20054;-63
2021/07/16 05:01:52;;;;;;;8.23;5.70;;;;;;;22.51;59.56;100946.00;4989108;28;20054;-63
2021/07/16 05:04:20;;;;;;;10.20;5.20;;;;;;;22.53;59.65;100944.00;4988957;28;20502;-63
2021/07/16 05:06:47;;;;;;;10.13;5.45;;;;;;;22.46;59.95;100948.31;4989379;28;20050;-63
2021/07/16 05:09:14;;;;;;;9.60;5.55;;;;;;;22.49;59.71;100940.81;4989384;28;20051;-63
2021/07/16 05:11:41;;;;;;;9.15;5.43;;;;;;;22.50;60.04;100937.16;4989002;28;20105;-63
2021/07/16 05:14:07;;;;;;;9.63;5.38;;;;;;;22.52;59.84;100938.84;4989103;28;20050;-63
2021/07/16 05:16:34;;;;;;;20.05;8.25;;;;;;;22.54;60.10;100937.69;4988863;28;20066;-63
2021/07/16 05:19:01;;;;;;;10.98;5.95;;;;;;;22.54;60.11;100943.03;4990576;28;20048;-63
2021/07/16 05:21:28;;;;;;;11.15;5.28;;;;;;;22.52;60.14;100941.50;4993147;28;20046;-63
2021/07/16 05:23:54;;;;;;;11.75;6.00;;;;;;;22.53;60.16;100936.00;4993190;28;20190;-63
2021/07/16 05:26:21;;;;;;;7.85;5.65;;;;;;;22.55;59.69;100942.03;4993004;28;20050;-63
2021/07/16 05:28:49;;;;;;;12.52;6.53;;;;;;;22.58;59.72;100951.56;4992942;28;20522;-63
2021/07/16 05:31:17;;;;;;;9.52;6.25;;;;;;;22.59;59.85;100939.84;4992771;28;20084;-63
2021/07/16 05:33:45;;;;;;;10.20;5.78;;;;;;;22.61;59.58;100946.75;4992820;28;20059;-63
2021/07/16 05:36:12;;;;;;;7.95;5.65;;;;;;;22.60;59.78;100953.09;4993047;28;20097;-63
2021/07/16 05:38:39;;;;;;;12.45;6.40;;;;;;;22.64;59.73;100950.94;4992882;28;20514;-63
2021/07/16 05:41:07;;;;;;;9.00;5.88;;;;;;;22.65;59.59;100948.09;4992634;28;20050;-63
2021/07/16 05:43:35;;;;;;;9.68;6.30;;;;;;;22.65;59.69;100952.56;4992502;28;20062;-63
2021/07/16 05:46:03;;;;;;;9.80;6.47;;;;;;;22.63;59.80;100943.91;4992483;28;20120;-63
2021/07/16 05:48:33;;;;;;;9.38;6.53;;;;;;;22.64;60.02;100953.59;4992601;28;20074;-63
2021/07/16 05:51:01;;;;;;;6.93;6.22;;;;;;;22.67;59.79;100958.63;4992503;28;20104;-64
2021/07/16 05:53:28;;;;;;;11.48;7.55;;;;;;;22.66;59.63;100957.78;4992369;28;20054;-63
2021/07/16 05:55:55;;;;;;;9.57;7.63;;;;;;;22.67;59.77;100955.94;4992613;28;20096;-63
2021/07/16 05:58:24;;;;;;;13.02;7.97;;;;;;;22.69;59.85;100955.78;4992454;28;20043;-63
2021/07/16 06:00:51;;;;;;;8.25;7.03;;;;;;;22.70;60.01;100963.63;4992132;28;20046;-63
2021/07/16 06:03:18;;;;;;;10.25;7.85;;;;;;;22.70;60.07;100965.47;4992145;28;20085;-64
2021/07/16 06:05:44;;;;;;;11.80;7.78;;;;;;;22.66;60.00;100964.97;4992058;28;20077;-63
2021/07/16 06:08:16;;;;;;;10.25;6.97;;;;;;;22.71;59.83;100964.50;4992060;28;20042;-64
2021/07/16 06:10:43;;;;;;;11.68;7.60;;;;;;;22.70;59.58;100977.00;4992313;28;20455;-63
2021/07/16 06:13:09;;;;;;;13.32;7.63;;;;;;;22.73;59.56;100976.69;4992267;28;20396;-63
2021/07/16 06:15:36;;;;;;;9.32;7.05;;;;;;;22.76;59.52;100984.41;4992018;28;20051;-63
2021/07/16 06:18:05;;;;;;;11.32;7.53;;;;;;;22.77;59.27;100986.06;4992338;28;20482;-63
2021/07/16 06:20:33;;;;;;;14.02;7.47;;;;;;;22.82;59.06;100997.13;4991799;28;20109;-63
2021/07/16 06:23:01;;;;;;;9.82;7.47;;;;;;;22.83;59.53;100998.00;4991727;28;20507;-63
2021/07/16 06:25:27;;;;;;;12.65;7.80;;;;;;;22.84;59.48;100996.97;4991929;28;20050;-63
2021/07/16 06:27:54;;;;;;;10.48;7.45;;;;;;;22.85;59.40;101001.31;4991780;28;20113;-63
2021/07/16 06:30:20;;;;;;;11.50;8.20;;;;;;;22.83;59.48;101003.34;4990538;28;20101;-63
2021/07/16 06:32:47;;;;;;;11.82;9.10;;;;;;;22.75;60.19;101017.50;4991374;28;20554;-63
2021/07/16 06:35:14;;;;;;;15.80;9.35;;;;;;;22.77;60.35;101014.69;4991609;28;20050;-63
2021/07/16 06:37:41;;;;;;;14.70;9.18;;;;;;;22.78;60.25;101029.75;4991581;28;20050;-63
2021/07/16 06:40:08;;;;;;;12.93;9.40;;;;;;;22.76;60.49;101034.41;4991645;28;20075;-63
2021/07/16 06:42:35;;;;;;;15.10;9.13;;;;;;;22.74;60.81;101023.88;4991984;28;20092;-63
2021/07/16 06:45:03;;;;;;;13.90;8.15;;;;;;;22.81;60.06;101030.22;4991779;28;20046;-64
2021/07/16 06:47:30;;;;;;;13.00;9.13;;;;;;;22.86;59.94;101043.16;4991517;28;20054;-63
2021/07/16 06:49:56;;;;;;;12.38;8.90;;;;;;;22.80;60.37;101033.06;4991191;28;20050;-64
2021/07/16 06:52:28;;;;;;;10.95;7.97;;;;;;;22.90;60.11;101035.63;4991475;28;20093;-63
2021/07/16 06:54:55;;;;;;;10.73;8.73;;;;;;;22.91;60.35;101050.69;4991193;28;20046;-63
2021/07/16 06:57:22;;;;;;;11.25;7.95;;;;;;;22.93;60.62;101054.88;4991247;28;20047;-63
2021/07/16 06:59:49;;;;;;;12.18;8.55;;;;;;;23.04;60.11;101050.25;4991262;28;20058;-63
2021/07/16 07:02:18;;;;;;;9.95;8.32;;;;;;;23.09;60.13;101051.41;4991131;28;20484;-63
2021/07/16 07:04:45;;;;;;;11.10;8.65;;;;;;;23.10;60.24;101053.09;4990964;28;20139;-63
2021/07/16 07:07:11;;;;;;;12.90;9.07;;;;;;;23.13;60.21;101054.63;4991122;28;20483;-63
2021/07/16 07:09:38;;;;;;;13.15;8.90;;;;;;;23.12;59.97;101050.25;4991102;28;20050;-64
2021/07/16 07:12:05;;;;;;;35.97;13.38;;;;;;;23.14;59.95;101042.91;4991094;28;20077;-63
2021/07/16 07:14:31;;;;;;;14.80;9.18;;;;;;;23.15;60.02;101044.63;4991131;28;20463;-64
2021/07/16 07:16:58;;;;;;;11.30;8.98;;;;;;;23.24;59.69;101048.19;4990534;28;20097;-64
2021/07/16 07:19:25;;;;;;;13.77;8.70;;;;;;;23.28;59.44;101044.97;4990859;28;20161;-63
2021/07/16 07:21:52;;;;;;;14.23;8.43;;;;;;;23.31;59.51;101044.69;4990727;28;20050;-64
2021/07/16 07:24:18;;;;;;;12.05;8.02;;;;;;;23.40;59.08;101036.66;4990629;28;20484;-63
2021/07/16 07:26:45;;;;;;;11.23;8.23;;;;;;;23.44;59.00;101041.53;4990577;28;20050;-64
2021/07/16 07:29:11;;;;;;;14.57;8.77;;;;;;;23.48;58.65;101036.69;4990604;28;20050;-63
2021/07/16 07:31:38;;;;;;;13.18;9.60;;;;;;;23.50;58.67;101036.50;4990337;28;20046;-63
2021/07/16 07:34:05;;;;;;;18.95;9.02;;;;;;;23.58;58.08;101034.69;4990820;28;20061;-63
2021/07/16 07:36:31;;;;;;;9.23;8.07;;;;;;;23.66;57.83;101031.16;4990834;28;20050;-64
2021/07/16 07:38:58;;;;;;;12.80;7.93;;;;;;;23.74;57.49;101036.53;4990636;28;20047;-64
2021/07/16 07:41:26;;;;;;;10.98;7.88;;;;;;;23.85;57.37;101029.19;4990199;28;20054;-64
2021/07/16 07:43:54;;;;;;;12.68;8.45;;;;;;;23.93;57.03;101029.19;4990165;28;20058;-64
2021/07/16 07:46:20;;;;;;;15.57;8.32;;;;;;;23.95;57.12;101027.19;4990191;28;20051;-64
2021/07/16 07:48:47;;;;;;;13.23;8.43;;;;;;;23.98;57.23;101026.03;4990352;28;20050;-64
2021/07/16 07:51:14;;;;;;;11.23;7.68;;;;;;;23.98;56.93;101032.22;4990068;28;20554;-63
2021/07/16 07:53:43;;;;;;;13.23;8.48;;;;;;;24.00;57.01;101026.66;4989991;28;20047;-64
2021/07/16 07:56:28;;;;;;;13.90;8.20;;;;;;;24.11;56.78;101034.38;4990409;28;20042;-63
2021/07/16 07:58:55;;;;;;;12.18;8.10;;;;;;;24.13;56.73;101038.56;4990042;28;20609;-63
2021/07/16 08:01:22;;;;;;;13.70;8.30;;;;;;;24.18;56.38;101030.00;4989976;28;20138;-63
2021/07/16 08:03:49;;;;;;;12.90;8.45;;;;;;;24.32;56.34;101033.03;4990085;28;20050;-63
2021/07/16 08:06:16;;;;;;;13.38;8.60;;;;;;;24.39;56.42;101031.31;4989997;28;20046;-64
2021/07/16 08:08:43;;;;;;;11.73;7.85;;;;;;;24.46;56.06;101026.94;4990033;28;20463;-64
2021/07/16 08:11:10;;;;;;;13.38;7.07;;;;;;;24.59;55.67;101024.56;4989763;28;20100;-63
2021/07/16 08:13:37;;;;;;;13.23;7.65;;;;;;;24.46;55.89;101024.28;4989732;28;20042;-63
2021/07/16 08:16:05;;;;;;;13.70;8.75;;;;;;;24.55;55.59;101027.75;4989679;28;20566;-64
2021/07/16 08:18:32;;;;;;;11.80;8.02;;;;;;;24.57;55.38;101031.09;4990057;28;20420;-64
2021/07/16 08:20:59;;;;;;;11.77;7.63;;;;;;;24.54;55.50;101034.97;4989465;28;20129;-64
2021/07/16 08:23:26;;;;;;;11.93;8.15;;;;;;;24.56;55.10;101032.97;4989742;28;20533;-64
2021/07/16 08:25:52;;;;;;;11.77;7.35;;;;;;;24.54;55.34;101036.81;4989843;28;20046;-64
2021/07/16 08:28:19;;;;;;;16.08;8.82;;;;;;;24.59;55.32;101027.25;4989703;28;20132;-64
2021/07/16 08:30:46;;;;;;;11.20;7.72;;;;;;;24.67;54.89;101034.47;4989392;28;20548;-63
2021/07/16 08:33:15;;;;;;;9.90;6.68;;;;;;;24.78;54.60;101026.06;4989580;28;20050;-64
2021/07/16 08:35:43;;;;;;;13.00;7.38;;;;;;;24.92;54.54;101029.00;4989302;28;20054;-64
2021/07/16 08:38:10;;;;;;;8.45;6.53;;;;;;;24.99;54.35;101032.66;4989502;28;20050;-63
2021/07/16 08:40:36;;;;;;;10.82;6.80;;;;;;;25.01;54.25;101032.47;4989569;28;20090;-63
2021/07/16 08:43:05;;;;;;;10.25;6.95;;;;;;;25.05;54.02;101028.44;4989575;28;20120;-63
2021/07/16 08:45:32;;;;;;;10.48;7.35;;;;;;;25.15;53.82;101029.03;4989609;28;20109;-63
2021/07/16 08:48:02;;;;;;;12.20;7.70;;;;;;;25.16;53.92;101037.94;4989273;28;20046;-64
2021/07/16 08:50:30;;;;;;;10.02;7.75;;;;;;;25.20;54.14;101034.72;4989203;28;20396;-64
2021/07/16 08:53:02;;;;;;;13.13;8.23;;;;;;;25.24;54.18;101033.38;4988656;28;20050;-63
2021/07/16 08:55:33;;;;;;;11.57;7.93;;;;;;;25.23;54.31;101033.53;4989010;28;20050;-63
2021/07/16 08:58:00;;;;;;;11.00;8.15;;;;;;;25.29;54.23;101040.88;4989492;28;20047;-64
2021/07/16 09:00:26;;;;;;;10.70;8.50;;;;;;;25.37;53.97;101045.41;4989125;28;20097;-63
2021/07/16 09:02:56;;;;;;;11.90;8.35;;;;;;;25.43;53.77;101040.19;4989307;28;20053;-63
2021/07/16 09:05:40;;;;;;;14.00;8.98;;;;;;;25.67;53.32;101040.19;4989229;28;20060;-64
2021/07/16 09:08:16;;;;;;;13.98;8.55;;;;;;;25.72;53.29;101041.28;4989467;28;20121;-63
2021/07/16 09:10:54;;;;;;;13.07;8.23;;;;;;;25.72;53.34;101043.97;4989433;28;20104;-64
2021/07/16 09:13:22;;;;;;;2.42;1.77;;;;;;;25.68;53.48;101044.53;4988988;28;20058;-68
2021/07/16 09:15:56;;;;;;;2.55;1.30;;;;;;;25.71;52.84;101041.47;4988786;28;20054;-64
2021/07/16 09:18:26;;;;;;;10.48;5.32;;;;;;;25.71;52.69;101044.16;4989072;28;20495;-65
2021/07/16 09:21:01;;;;;;;8.30;4.53;;;;;;;25.71;52.39;101042.34;4989139;28;20101;-65
2021/07/16 09:23:39;;;;;;;13.30;10.10;;;;;;;25.63;52.76;101037.00;4989003;28;20190;-65
2021/07/16 09:26:09;;;;;;;13.18;6.22;;;;;;;25.58;53.12;101047.47;4988868;28;20109;-65
2021/07/16 09:28:38;;;;;;;16.42;11.50;;;;;;;25.56;52.97;101049.47;4988858;28;20101;-64
2021/07/16 09:31:25;;;;;;;12.80;8.43;;;;;;;25.48;53.04;101050.38;4989114;28;20063;-65
2021/07/16 09:34:01;;;;;;;14.98;8.90;;;;;;;25.59;52.79;101049.97;4989096;28;20042;-65
2021/07/16 09:36:38;;;;;;;9.93;7.43;;;;;;;25.91;51.93;101045.38;4989101;28;20047;-64
2021/07/16 09:39:11;;;;;;;14.15;11.10;;;;;;;25.94;51.84;101043.31;4989013;28;20458;-61
2021/07/16 09:41:51;;;;;;;12.57;9.90;;;;;;;26.16;51.36;101047.03;4988845;28;20105;-63
2021/07/16 09:44:34;;;;;;;15.35;11.60;;;;;;;26.05;51.63;101051.81;4988764;28;20049;-63
2021/07/16 09:47:18;;;;;;;15.30;11.93;;;;;;;26.10;51.51;101047.75;4989207;28;20138;-63
2021/07/16 09:50:02;;;;;;;18.48;12.10;;;;;;;26.08;51.94;101047.94;4988815;28;20054;-63
2021/07/16 09:52:29;;;;;;;19.25;12.55;;;;;;;25.90;52.26;101046.38;4988864;28;20046;-63
2021/07/16 09:55:14;;;;;;;15.43;12.02;;;;;;;25.89;52.60;101043.84;4988803;28;20100;-63
2021/07/16 09:57:43;;;;;;;17.88;13.10;;;;;;;25.85;52.86;101040.72;4988798;28;20046;-63
2021/07/16 10:00:21;;;;;;;15.77;12.48;;;;;;;25.94;52.61;101035.25;4988749;28;20046;-63
2021/07/16 10:02:49;;;;;;;13.82;11.25;;;;;;;26.17;52.24;101033.41;4988524;28;20046;-63
2021/07/16 10:05:17;;;;;;;14.48;11.90;;;;;;;26.20;52.13;101038.41;4990656;28;20470;-63
2021/07/16 10:07:45;;;;;;;16.63;11.35;;;;;;;26.30;51.90;101029.25;4992453;28;20085;-64
2021/07/16 10:10:20;;;;;;;14.45;11.73;;;;;;;26.53;51.20;101029.97;4992172;28;20054;-63
2021/07/16 10:12:48;;;;;;;14.85;11.27;;;;;;;27.11;49.73;101026.63;4991783;28;20070;-63
2021/07/16 10:15:17;;;;;;;13.88;10.25;;;;;;;27.32;49.21;101017.72;4992087;28;20066;-63
2021/07/16 10:17:44;;;;;;;12.45;10.52;;;;;;;27.51;48.45;101021.66;4991858;28;20042;-63
2021/07/16 10:20:13;;;;;;;14.10;10.55;;;;;;;28.03;46.98;101018.84;4991847;28;20100;-63
2021/07/16 10:22:41;;;;;;;14.13;10.52;;;;;;;28.49;46.06;101012.06;4991782;28;20105;-63
2021/07/16 10:25:09;;;;;;;14.02;9.88;;;;;;;28.90;45.37;101013.09;4991711;28;20120;-63
2021/07/16 10:27:40;;;;;;;15.48;11.63;;;;;;;28.83;45.95;101013.91;4991842;28;21076;-63
2021/07/16 10:30:09;;;;;;;13.45;10.05;;;;;;;28.98;45.82;101019.16;4991959;28;20113;-63
2021/07/16 10:32:50;;;;;;;19.63;12.18;;;;;;;28.96;45.64;101006.91;4991831;28;20104;-64
2021/07/16 10:35:29;;;;;;;15.40;11.95;;;;;;;29.11;45.42;101010.28;4991848;28;20049;-64
2021/07/16 10:38:04;;;;;;;15.40;10.70;;;;;;;29.45;44.67;101002.28;4991764;28;20454;-63
2021/07/16 10:40:35;;;;;;;;;;;;;;;29.72;43.75;100996.88;4992061;28;20553;-63
2021/07/16 10:43:03;;;;;;;14.75;11.02;;;;;;;29.63;43.92;101001.66;4991861;28;19921;-64
2021/07/16 10:45:39;;;;;;;16.33;11.38;;;;;;;29.30;44.79;101002.47;4991847;28;20073;-64
2021/07/16 10:48:11;;;;;;;15.32;11.07;;;;;;;29.05;45.31;100999.44;4991480;28;20058;-63
2021/07/16 10:50:41;;;;;;;18.35;12.57;;;;;;;28.72;45.63;101010.97;4991560;28;20050;-64
2021/07/16 10:53:13;;;;;;;20.02;11.55;;;;;;;28.78;45.20;101002.06;4991769;28;20042;-63
2021/07/16 10:55:40;;;;;;;16.23;11.65;;;;;;;28.93;45.11;101007.31;4991293;28;20375;-63
2021/07/16 10:58:18;;;;;;;14.00;11.30;;;;;;;29.30;43.52;101003.28;4991369;28;20061;-63
2021/07/16 11:00:54;;;;;;;13.20;10.52;;;;;;;29.77;42.39;100989.78;4991260;28;20046;-63
2021/07/16 11:03:23;;;;;;;15.77;10.68;;;;;;;29.88;42.37;100987.53;4991176;28;20054;-63
2021/07/16 11:05:54;;;;;;;16.85;11.20;;;;;;;29.87;42.33;100994.78;4991002;28;20154;-63
2021/07/16 11:08:32;;;;;;;12.45;9.40;;;;;;;29.92;42.14;100996.91;4991107;28;20196;-63
2021/07/16 11:11:03;;;;;;;10.25;7.63;;;;;;;30.28;41.50;100991.03;4991215;28;20053;-64
2021/07/16 11:13:34;;;;;;;11.00;8.00;;;;;;;30.30;41.11;100986.22;4990969;28;20046;-64
2021/07/16 11:16:24;;;;;;;7.88;6.22;;;;;;;30.05;41.22;100991.47;4990394;28;20057;-64
2021/07/16 11:18:54;;;;;;;9.55;6.60;;;;;;;29.87;41.40;100988.56;4990898;28;20042;-63
2021/07/16 11:21:39;;;;;;;9.82;6.85;;;;;;;29.60;42.03;100986.69;4990866;28;20058;-63
2021/07/16 11:24:15;;;;;;;8.75;6.63;;;;;;;29.47;42.26;100992.91;4990977;28;20145;-63
2021/07/16 11:26:54;;;;;;;10.43;8.13;;;;;;;29.14;42.93;100996.38;4990674;28;20112;-63